Mineral, VA (23117)

10:35 PM EST on February 08, 2016 (GMT -0500)
Shannon Hill Estates | | Change Station
CLOSE
Current Station
Personal Weather Station
Location: Kents Store, VA
Elevation: 465 ft
Nearby Weather Stations

Elev 465 ft 37.87 °N, 78.05 °W | Updated 6 seconds ago

Overcast
Overcast
37.7 °F
Feels Like 38 °F
N
0.0
Wind Variable Wind from East
Gusts 0.0 mph

Today
High -- | Low -- °F
--% Chance of Precip.
Yesterday
High -- | Low -- °F
Precip. -- in
Pressure 29.64 in
Visibility 10.0 miles
Clouds Mostly Cloudy 1500 ft
Overcast 2000 ft
Windchill 38 °F
Dew Point 36 °F
Humidity 94%
Rainfall 0.05 in
Snow Depth Not available.
7:09 AM 5:42 PM
New Moon, 0% visible
METAR KLKU 090315Z AUTO 15003KT 10SM DZ BKN015 OVC020 04/03 A2964 RMK AO2
Pressure 29.64 in
Visibility 10.0 miles
Clouds Mostly Cloudy 1500 ft
Overcast 2000 ft
Windchill 38 °F
Dew Point 36 °F
Humidity 94%
Rainfall 0.05 in
Snow Depth Not available.
7:09 AM 5:42 PM
New Moon, 0% visible
METAR KLKU 090315Z AUTO 15003KT 10SM DZ BKN015 OVC020 04/03 A2964 RMK AO2

10-Day Weather Forecast

Almanac

Astronomy

Feb. 08, 2016 Rise Set
Actual Time
Civil Twilight
Nautical Twilight
Astronomical Twilight
Moon
Length of Visible Light
Length of Day
Tomorrow will be .
, % of the Moon is Illuminated

Today's Extremes

State Highs State Lows

Community

WunderPhotos

Upload Photos

1,891,527 photos uploaded!

WunderBlog® & News

Nearby

Air Quality

  Air Quality AQ Index Pollutant
Not available.

Snow Depth

Station Depth Elevation

Earthquake Activity

City Distance Mag. Time & Date
Minimum magnitude displayed is 2.5.

Coastal Water Temperatures

Place Temperature

Stations

Nearby Weather Stations

Station Location Temp. Windchill Dew Point Humidity Wind Precip. Elev Updated Type
                   

Watches & Warnings

There are currently no watches in effect.